^^
Your Local Weather - Clay, NY Station Historical Data
Daily Summary for January 19, 2018 Units:  English    Metric   Both
« Previous Day
Next Day »
Daily Weekly Monthly Yearly Custom
  High: Low: Average:
Temperature: 33.6 °F 8.1 °F 22.7 °F
Dew Point: 23.2 °F 5.3 °F 16.6 °F
Humidity: 91% 56% 78%
Wind Speed: 5.0mph 0.0mph 1.2mph
Wind Gust: 10.0mph - -
Wind- - SW
Pressure: 29.99 in 29.74 in -
Precipitation: 0.01 in    
Historical Graphs
 
 
Tabular Data for January 19, 2018
Time Temperature Dew Point Pressure Wind Wind Speed Wind Gust Humidity Rainfall Rate (Hourly) solar
00:00 15.7 °F 12.8 °F 29.99 in Calm     88% 0.00 in 0 W/m2
00:05 16.1 °F 13.2 °F 29.98 in Calm     88% 0.00 in 0 W/m2
00:13 16.4 °F 13.5 °F 29.98 in Calm     88% 0.00 in 0 W/m2
00:19 16.7 °F 13.8 °F 29.98 in Calm     88% 0.00 in 0 W/m2
00:25 17.0 °F 14.1 °F 29.98 in Calm     88% 0.00 in 0 W/m2
00:32 17.2 °F 14.3 °F 29.98 in Calm     88% 0.00 in 0 W/m2
00:38 17.5 °F 14.6 °F 29.97 in Calm     88% 0.00 in 0 W/m2
00:43 17.5 °F 14.6 °F 29.97 in Calm     88% 0.00 in 0 W/m2
00:49 17.4 °F 14.5 °F 29.97 in Calm     88% 0.00 in 0 W/m2
00:56 17.3 °F 14.4 °F 29.97 in Calm     88% 0.00 in 0 W/m2
01:02 17.3 °F 14.4 °F 29.97 in Calm     88% 0.00 in 0 W/m2
01:08 17.3 °F 14.4 °F 29.97 in Calm     88% 0.00 in 0 W/m2
01:14 17.3 °F 14.4 °F 29.97 in Calm     88% 0.00 in 0 W/m2
01:20 17.5 °F 14.6 °F 29.96 in Calm     88% 0.00 in 0 W/m2
01:25 17.5 °F 14.6 °F 29.96 in Calm     88% 0.00 in 0 W/m2
01:32 17.4 °F 14.2 °F 29.96 in Calm     87% 0.00 in 0 W/m2
01:38 17.4 °F 14.2 °F 29.96 in Calm     87% 0.00 in 0 W/m2
01:44 17.4 °F 14.2 °F 29.96 in Calm   1.0 mph 87% 0.00 in 0 W/m2
01:50 17.4 °F 14.2 °F 29.96 in Calm     87% 0.00 in 0 W/m2
01:55 17.3 °F 14.1 °F 29.96 in Calm     87% 0.00 in 0 W/m2
02:02 17.1 °F 13.9 °F 29.96 in Calm     87% 0.00 in 0 W/m2
02:08 17.1 °F 13.9 °F 29.96 in Calm     87% 0.00 in 0 W/m2
02:13 17.1 °F 13.9 °F 29.96 in Calm     87% 0.00 in 0 W/m2
02:19 17.0 °F 14.1 °F 29.95 in Calm     88% 0.00 in 0 W/m2
02:26 16.9 °F 14.0 °F 29.95 in Calm     88% 0.00 in 0 W/m2
02:32 16.8 °F 13.9 °F 29.95 in Calm     88% 0.00 in 0 W/m2
02:38 16.7 °F 13.8 °F 29.95 in Calm     88% 0.00 in 0 W/m2
02:43 16.4 °F 13.2 °F 29.95 in Calm     87% 0.00 in 0 W/m2
02:49 16.0 °F 12.8 °F 29.95 in Calm     87% 0.00 in 0 W/m2
02:56 15.6 °F 12.4 °F 29.95 in Calm     87% 0.00 in 0 W/m2
03:02 14.8 °F 11.6 °F 29.95 in Calm     87% 0.00 in 0 W/m2
03:08 14.4 °F 11.2 °F 29.95 in Calm     87% 0.00 in 0 W/m2
03:14 13.9 °F 10.7 °F 29.95 in Calm     87% 0.00 in 0 W/m2
03:19 13.5 °F 10.4 °F 29.95 in Calm     87% 0.00 in 0 W/m2
03:25 13.2 °F 10.1 °F 29.95 in Calm     87% 0.00 in 0 W/m2
03:32 12.8 °F 9.7 °F 29.95 in Calm     87% 0.00 in 0 W/m2
03:38 12.4 °F 9.3 °F 29.95 in Calm     87% 0.00 in 0 W/m2
03:44 12.1 °F 9.0 °F 29.95 in Calm     87% 0.00 in 0 W/m2
03:50 11.9 °F 8.8 °F 29.95 in Calm     87% 0.00 in 0 W/m2
03:56 11.6 °F 8.7 °F 29.95 in Calm     88% 0.00 in 0 W/m2
04:02 11.4 °F 8.3 °F 29.95 in Calm     87% 0.00 in 0 W/m2
04:08 11.0 °F 8.1 °F 29.95 in Calm     88% 0.00 in 0 W/m2
04:13 10.6 °F 7.5 °F 29.94 in Calm     87% 0.00 in 0 W/m2
04:20 10.4 °F 7.6 °F 29.94 in Calm     88% 0.00 in 0 W/m2
04:26 10.1 °F 7.0 °F 29.94 in Calm     87% 0.00 in 0 W/m2
04:32 9.7 °F 6.9 °F 29.95 in Calm     88% 0.00 in 0 W/m2
04:38 9.3 °F 6.2 °F 29.95 in Calm     87% 0.00 in 0 W/m2
04:44 9.0 °F 5.9 °F 29.95 in Calm     87% 0.00 in 0 W/m2
04:49 8.8 °F 5.7 °F 29.94 in Calm     87% 0.00 in 0 W/m2
04:56 8.7 °F 5.9 °F 29.94 in Calm     88% 0.00 in 0 W/m2
05:02 8.9 °F 6.1 °F 29.94 in Calm     88% 0.00 in 0 W/m2
05:08 9.1 °F 6.3 °F 29.95 in Calm     88% 0.00 in 0 W/m2
05:14 9.1 °F 6.3 °F 29.95 in Calm     88% 0.00 in 0 W/m2
05:20 9.1 °F 6.3 °F 29.95 in Calm     88% 0.00 in 0 W/m2
05:26 9.1 °F 6.3 °F 29.95 in Calm     88% 0.00 in 0 W/m2
05:32 9.1 °F 6.3 °F 29.95 in Calm     88% 0.00 in 0 W/m2
05:38 9.0 °F 6.2 °F 29.95 in Calm     88% 0.00 in 0 W/m2
05:43 8.9 °F 6.1 °F 29.95 in Calm     88% 0.00 in 0 W/m2
05:49 8.8 °F 6.0 °F 29.95 in Calm     88% 0.00 in 0 W/m2
05:56 8.8 °F 6.0 °F 29.95 in Calm     88% 0.00 in 0 W/m2
06:02 8.7 °F 5.9 °F 29.95 in Calm     88% 0.00 in 0 W/m2
06:08 8.7 °F 5.9 °F 29.95 in Calm     88% 0.00 in 0 W/m2
06:14 8.7 °F 5.9 °F 29.94 in Calm     88% 0.00 in 0 W/m2
06:20 8.6 °F 5.8 °F 29.94 in Calm     88% 0.00 in 0 W/m2
06:25 8.5 °F 5.7 °F 29.95 in Calm     88% 0.00 in 0 W/m2
06:32 8.3 °F 5.5 °F 29.95 in Calm     88% 0.00 in 0 W/m2
06:38 8.2 °F 5.4 °F 29.95 in Calm     88% 0.00 in 0 W/m2
06:44 8.1 °F 5.3 °F 29.95 in Calm     88% 0.00 in 0 W/m2
06:50 8.3 °F 5.5 °F 29.95 in Calm     88% 0.00 in 0 W/m2
06:55 8.5 °F 5.7 °F 29.95 in Calm     88% 0.00 in 0 W/m2
07:02 8.8 °F 6.0 °F 29.95 in Calm     88% 0.00 in 0 W/m2
07:08 9.1 °F 6.3 °F 29.95 in Calm     88% 0.00 in 0 W/m2
07:14 9.3 °F 6.5 °F 29.95 in Calm     88% 0.00 in 0 W/m2
07:20 9.7 °F 7.1 °F 29.95 in Calm     89% 0.00 in 0 W/m2
07:25 10.4 °F 7.8 °F 29.95 in Calm     89% 0.00 in 0 W/m2
07:32 11.8 °F 9.2 °F 29.95 in Calm     89% 0.00 in 0 W/m2
07:38 13.3 °F 10.9 °F 29.95 in Calm     90% 0.00 in 5 W/m2
07:44 14.5 °F 12.1 °F 29.96 in Calm     90% 0.00 in 5 W/m2
07:50 15.4 °F 13.0 °F 29.95 in Calm   1.0 mph 90% 0.00 in 7 W/m2
07:55 16.9 °F 14.7 °F 29.95 in Calm   1.0 mph 91% 0.00 in 11 W/m2
08:02 19.6 °F 17.4 °F 29.96 in SW 1.0 mph 2.0 mph 91% 0.00 in 11 W/m2
08:08 21.3 °F 18.8 °F 29.96 in SW 1.0 mph 4.0 mph 90% 0.00 in 19 W/m2
08:13 22.3 °F 19.6 °F 29.95 in SW 1.0 mph 1.0 mph 89% 0.00 in 23 W/m2
08:19 23.2 °F 19.9 °F 29.95 in WSW 1.0 mph 4.0 mph 87% 0.00 in 33 W/m2
08:26 24.0 °F 20.1 °F 29.95 in SW 1.0 mph 4.0 mph 85% 0.00 in 30 W/m2
08:32 24.7 °F 20.3 °F 29.95 in WSW 2.0 mph 4.0 mph 83% 0.00 in 32 W/m2
08:38 25.2 °F 20.2 °F 29.95 in WSW 2.0 mph 4.0 mph 81% 0.00 in 39 W/m2
08:43 25.6 °F 20.6 °F 29.95 in SW 2.0 mph 5.0 mph 81% 0.00 in 39 W/m2
08:49 25.9 °F 20.6 °F 29.95 in SW 3.0 mph 3.0 mph 80% 0.00 in 42 W/m2
08:56 26.2 °F 20.6 °F 29.95 in West 3.0 mph 7.0 mph 79% 0.00 in 44 W/m2
09:02 26.3 °F 20.4 °F 29.95 in WSW 2.0 mph 3.0 mph 78% 0.00 in 47 W/m2
09:08 26.4 °F 20.5 °F 29.95 in SW 2.0 mph 4.0 mph 78% 0.00 in 56 W/m2
09:14 26.6 °F 20.7 °F 29.94 in SW 3.0 mph 5.0 mph 78% 0.00 in 51 W/m2
09:20 26.8 °F 20.9 °F 29.94 in SSW 3.0 mph 3.0 mph 78% 0.00 in 72 W/m2
09:25 27.0 °F 20.7 °F 29.94 in SW 3.0 mph 4.0 mph 77% 0.00 in 79 W/m2
09:32 27.1 °F 20.8 °F 29.94 in SW 3.0 mph 6.0 mph 77% 0.00 in 79 W/m2
09:38 27.2 °F 20.9 °F 29.94 in SW 3.0 mph 6.0 mph 77% 0.00 in 88 W/m2
09:44 27.4 °F 20.8 °F 29.95 in WSW 3.0 mph 8.0 mph 76% 0.00 in 97 W/m2
09:50 27.5 °F 20.9 °F 29.96 in SW 4.0 mph 4.0 mph 76% 0.00 in 102 W/m2
09:55 27.6 °F 21.0 °F 29.96 in WSW 4.0 mph 4.0 mph 76% 0.00 in 114 W/m2
10:02 27.7 °F 21.1 °F 29.95 in WSW 3.0 mph 5.0 mph 76% 0.00 in 116 W/m2
10:10 27.9 °F 21.0 °F 29.95 in SW 3.0 mph 5.0 mph 75% 0.00 in 141 W/m2
10:16 28.1 °F 21.2 °F 29.95 in SW 4.0 mph 5.0 mph 75% 0.00 in 162 W/m2
10:22 28.3 °F 21.4 °F 29.95 in SW 4.0 mph 7.0 mph 75% 0.00 in 163 W/m2
10:28 28.5 °F 21.6 °F 29.95 in SW 3.0 mph 7.0 mph 75% 0.00 in 171 W/m2
10:34 28.8 °F 21.9 °F 29.95 in WSW 2.0 mph 5.0 mph 75% 0.00 in 195 W/m2
10:40 28.9 °F 22.0 °F 29.95 in SSW 3.0 mph 5.0 mph 75% 0.00 in 216 W/m2
10:45 29.1 °F 21.8 °F 29.95 in SSW 3.0 mph 7.0 mph 74% 0.00 in 251 W/m2
10:52 29.4 °F 22.5 °F 29.94 in West 4.0 mph 7.0 mph 75% 0.00 in 265 W/m2
10:58 29.5 °F 22.2 °F 29.94 in WSW 3.0 mph 7.0 mph 74% 0.00 in 116 W/m2
11:03 29.5 °F 22.2 °F 29.94 in West 4.0 mph 4.0 mph 74% 0.00 in 176 W/m2
11:09 29.7 °F 22.1 °F 29.94 in SW 4.0 mph 7.0 mph 73% 0.00 in 237 W/m2
11:16 30.0 °F 22.7 °F 29.94 in SW 4.0 mph 7.0 mph 74% 0.00 in 304 W/m2
11:22 30.4 °F 22.8 °F 29.94 in West 4.0 mph 4.0 mph 73% 0.00 in 276 W/m2
11:28 30.5 °F 22.9 °F 29.94 in WSW 3.0 mph 8.0 mph 73% 0.00 in 257 W/m2
11:34 30.6 °F 23.0 °F 29.93 in WSW 4.0 mph 4.0 mph 73% 0.00 in 232 W/m2
11:39 30.5 °F 22.5 °F 29.94 in WSW 4.0 mph 4.0 mph 72% 0.00 in 229 W/m2
11:46 30.5 °F 22.2 °F 29.94 in West 5.0 mph 5.0 mph 71% 0.00 in 229 W/m2
11:52 30.7 °F 22.7 °F 29.93 in SW 4.0 mph 5.0 mph 72% 0.00 in 244 W/m2
11:58 30.7 °F 22.4 °F 29.93 in West 4.0 mph 5.0 mph 71% 0.00 in 225 W/m2
12:04 30.7 °F 22.4 °F 29.93 in SW 4.0 mph 5.0 mph 71% 0.00 in 260 W/m2
12:10 30.7 °F 22.4 °F 29.93 in WSW 4.0 mph 4.0 mph 71% 0.00 in 220 W/m2
12:15 30.9 °F 22.3 °F 29.92 in SW 4.0 mph 6.0 mph 70% 0.00 in 283 W/m2
12:22 31.2 °F 23.2 °F 29.92 in WSW 4.0 mph 6.0 mph 72% 0.00 in 374 W/m2
12:28 31.1 °F 23.1 °F 29.91 in WSW 4.0 mph 6.0 mph 72% 0.00 in 376 W/m2
12:34 31.5 °F 22.8 °F 29.91 in SW 4.0 mph 6.0 mph 70% 0.00 in 417 W/m2
12:40 31.7 °F 22.3 °F 29.91 in WSW 4.0 mph 4.0 mph 68% 0.00 in 432 W/m2
12:46 32.4 °F 22.3 °F 29.91 in SW 4.0 mph 4.0 mph 66% 0.00 in 606 W/m2
12:52 31.7 °F 21.6 °F 29.91 in WSW 4.0 mph 5.0 mph 66% 0.00 in 283 W/m2
12:58 32.6 °F 22.1 °F 29.90 in SW 4.0 mph 7.0 mph 65% 0.00 in 499 W/m2
13:04 33.2 °F 22.0 °F 29.90 in SW 3.0 mph 9.0 mph 63% 0.00 in 473 W/m2
13:10 33.1 °F 21.9 °F 29.90 in South 4.0 mph 6.0 mph 63% 0.00 in 439 W/m2
13:15 32.7 °F 21.5 °F 29.90 in SW 5.0 mph 8.0 mph 63% 0.00 in 355 W/m2
13:22 32.7 °F 21.5 °F 29.90 in South 5.0 mph 9.0 mph 63% 0.00 in 424 W/m2
13:28 32.9 °F 21.7 °F 29.91 in SW 4.0 mph 9.0 mph 63% 0.00 in 411 W/m2
13:34 32.5 °F 20.9 °F 29.90 in SW 4.0 mph 5.0 mph 62% 0.00 in 420 W/m2
13:40 32.6 °F 21.0 °F 29.90 in SW 4.0 mph 6.0 mph 62% 0.00 in 411 W/m2
13:45 32.3 °F 20.7 °F 29.90 in West 4.0 mph 6.0 mph 62% 0.00 in 401 W/m2
13:52 32.3 °F 20.7 °F 29.91 in SW 5.0 mph 6.0 mph 62% 0.00 in 396 W/m2
13:58 32.5 °F 20.5 °F 29.91 in WSW 4.0 mph 7.0 mph 61% 0.00 in 387 W/m2
14:04 32.7 °F 20.7 °F 29.91 in SW 4.0 mph 5.0 mph 61% 0.00 in 381 W/m2
14:10 32.5 °F 20.1 °F 29.91 in SW 4.0 mph 6.0 mph 60% 0.00 in 371 W/m2
14:15 32.7 °F 20.7 °F 29.90 in South 4.0 mph 6.0 mph 61% 0.00 in 357 W/m2
14:22 32.8 °F 20.4 °F 29.90 in West 3.0 mph 4.0 mph 60% 0.00 in 350 W/m2
14:28 32.6 °F 20.2 °F 29.90 in WSW 4.0 mph 10.0 mph 60% 0.00 in 339 W/m2
14:34 32.6 °F 20.2 °F 29.89 in SW 4.0 mph 6.0 mph 60% 0.00 in 330 W/m2
14:40 32.5 °F 20.1 °F 29.88 in SSW 4.0 mph 4.0 mph 60% 0.00 in 320 W/m2
14:45 32.5 °F 20.1 °F 29.88 in SSW 4.0 mph 7.0 mph 60% 0.00 in 309 W/m2
14:52 32.9 °F 20.5 °F 29.88 in SSW 4.0 mph 5.0 mph 60% 0.00 in 299 W/m2
14:58 32.9 °F 20.1 °F 29.88 in SE 4.0 mph 8.0 mph 59% 0.00 in 283 W/m2
15:03 32.8 °F 20.0 °F 29.88 in South 4.0 mph 10.0 mph 59% 0.00 in 271 W/m2
15:10 32.8 °F 20.0 °F 29.88 in SSW 4.0 mph 4.0 mph 59% 0.00 in 255 W/m2
15:16 32.9 °F 19.7 °F 29.88 in South 3.0 mph 4.0 mph 58% 0.00 in 239 W/m2
15:22 33.1 °F 20.3 °F 29.88 in SW 3.0 mph 3.0 mph 59% 0.00 in 230 W/m2
15:28 33.3 °F 19.7 °F 29.88 in SW 3.0 mph 6.0 mph 57% 0.00 in 209 W/m2
15:33 33.5 °F 20.3 °F 29.88 in West 3.0 mph 3.0 mph 58% 0.00 in 197 W/m2
15:40 33.6 °F 20.0 °F 29.88 in West 2.0 mph 2.0 mph 57% 0.00 in 185 W/m2
15:46 33.5 °F 19.9 °F 29.88 in West 2.0 mph 4.0 mph 57% 0.00 in 174 W/m2
15:52 33.4 °F 19.4 °F 29.88 in South 2.0 mph 4.0 mph 56% 0.00 in 156 W/m2
15:58 33.2 °F 19.6 °F 29.88 in SW 2.0 mph 5.0 mph 57% 0.00 in 148 W/m2
16:03 33.3 °F 19.3 °F 29.88 in SW 2.0 mph 3.0 mph 56% 0.00 in 134 W/m2
16:10 33.3 °F 19.3 °F 29.87 in SW 1.0 mph 1.0 mph 56% 0.00 in 113 W/m2
16:15 33.3 °F 19.3 °F 29.87 in SSW 2.0 mph 2.0 mph 56% 0.00 in 35 W/m2
16:22 33.0 °F 19.0 °F 29.86 in SSW 1.0 mph 2.0 mph 56% 0.00 in 26 W/m2
16:28 32.7 °F 19.1 °F 29.86 in SSW 1.0 mph 2.0 mph 57% 0.00 in 28 W/m2
16:34 32.5 °F 19.3 °F 29.86 in Calm   1.0 mph 58% 0.00 in 26 W/m2
16:40 32.2 °F 19.1 °F 29.86 in Calm     58% 0.00 in 21 W/m2
16:46 31.5 °F 18.8 °F 29.85 in Calm     59% 0.00 in 14 W/m2
16:52 30.9 °F 19.0 °F 29.85 in Calm     61% 0.00 in 9 W/m2
16:58 30.3 °F 19.2 °F 29.85 in Calm     63% 0.00 in 5 W/m2
17:04 29.6 °F 18.9 °F 29.85 in Calm     64% 0.00 in 5 W/m2
17:10 28.7 °F 18.8 °F 29.84 in Calm     66% 0.00 in 0 W/m2
17:16 28.0 °F 18.5 °F 29.85 in Calm     67% 0.00 in 0 W/m2
17:22 27.6 °F 18.8 °F 29.85 in Calm     69% 0.00 in 0 W/m2
17:28 27.2 °F 18.7 °F 29.85 in Calm     70% 0.00 in 0 W/m2
17:36 26.4 °F 18.3 °F 29.85 in Calm     71% 0.00 in 0 W/m2
17:42 26.1 °F 18.3 °F 29.84 in Calm     72% 0.00 in 0 W/m2
17:48 26.2 °F 18.7 °F 29.85 in Calm     73% 0.00 in 0 W/m2
17:54 26.1 °F 18.6 °F 29.85 in Calm     73% 0.00 in 0 W/m2
18:00 25.8 °F 18.3 °F 29.85 in Calm     73% 0.00 in 0 W/m2
18:05 25.6 °F 18.5 °F 29.85 in Calm     74% 0.00 in 0 W/m2
18:12 25.3 °F 18.2 °F 29.85 in Calm     74% 0.00 in 0 W/m2
18:18 25.2 °F 18.1 °F 29.85 in Calm     74% 0.00 in 0 W/m2
18:23 25.0 °F 17.9 °F 29.85 in Calm   1.0 mph 74% 0.00 in 0 W/m2
18:30 24.5 °F 17.7 °F 29.84 in Calm     75% 0.00 in 0 W/m2
18:35 24.2 °F 17.4 °F 29.84 in Calm     75% 0.00 in 0 W/m2
18:42 23.9 °F 17.4 °F 29.83 in Calm     76% 0.00 in 0 W/m2
18:48 24.1 °F 17.9 °F 29.83 in Calm     77% 0.00 in 0 W/m2
18:54 24.2 °F 18.0 °F 29.83 in ESE 1.0 mph 3.0 mph 77% 0.00 in 0 W/m2
19:00 24.6 °F 18.4 °F 29.83 in ESE 1.0 mph 1.0 mph 77% 0.00 in 0 W/m2
19:06 25.0 °F 18.8 °F 29.83 in ESE 1.0 mph 3.0 mph 77% 0.00 in 0 W/m2
19:12 25.2 °F 19.0 °F 29.83 in ESE 1.0 mph 1.0 mph 77% 0.00 in 0 W/m2
19:18 25.5 °F 19.0 °F 29.83 in Calm   1.0 mph 76% 0.00 in 0 W/m2
19:23 25.3 °F 18.8 °F 29.82 in Calm     76% 0.00 in 0 W/m2
19:30 25.4 °F 18.9 °F 29.82 in Calm     76% 0.00 in 0 W/m2
19:36 25.3 °F 18.5 °F 29.82 in Calm   2.0 mph 75% 0.00 in 0 W/m2
19:42 25.3 °F 18.5 °F 29.82 in Calm     75% 0.00 in 0 W/m2
19:48 24.9 °F 18.1 °F 29.82 in Calm     75% 0.00 in 0 W/m2
19:53 24.3 °F 17.8 °F 29.82 in Calm     76% 0.00 in 0 W/m2
19:59 23.9 °F 17.4 °F 29.82 in Calm     76% 0.00 in 0 W/m2
20:05 23.6 °F 17.4 °F 29.82 in Calm     77% 0.00 in 0 W/m2
20:12 23.3 °F 17.5 °F 29.81 in Calm     78% 0.00 in 0 W/m2
20:18 23.1 °F 17.3 °F 29.81 in Calm     78% 0.00 in 0 W/m2
20:23 22.9 °F 17.4 °F 29.81 in Calm     79% 0.00 in 0 W/m2
20:29 22.5 °F 17.0 °F 29.81 in Calm     79% 0.00 in 0 W/m2
20:36 22.2 °F 17.0 °F 29.81 in Calm     80% 0.00 in 0 W/m2
20:42 22.1 °F 17.2 °F 29.80 in Calm     81% 0.00 in 0 W/m2
20:48 21.9 °F 17.0 °F 29.80 in Calm     81% 0.00 in 0 W/m2
20:53 21.8 °F 16.9 °F 29.80 in Calm     81% 0.00 in 0 W/m2
21:00 21.8 °F 17.2 °F 29.80 in Calm     82% 0.00 in 0 W/m2
21:05 21.9 °F 17.2 °F 29.80 in Calm     82% 0.00 in 0 W/m2
21:12 22.0 °F 17.3 °F 29.80 in Calm     82% 0.00 in 0 W/m2
21:18 22.1 °F 17.4 °F 29.80 in Calm     82% 0.00 in 0 W/m2
21:24 21.9 °F 17.2 °F 29.80 in Calm     82% 0.00 in 0 W/m2
21:29 21.8 °F 17.2 °F 29.80 in Calm     82% 0.00 in 0 W/m2
21:36 21.9 °F 17.2 °F 29.79 in Calm     82% 0.00 in 0 W/m2
21:42 22.3 °F 17.9 °F 29.79 in Calm     83% 0.00 in 0 W/m2
21:48 22.8 °F 18.4 °F 29.78 in Calm     83% 0.00 in 0 W/m2
21:54 23.1 °F 18.7 °F 29.78 in Calm     83% 0.00 in 0 W/m2
21:59 23.4 °F 19.0 °F 29.78 in Calm     83% 0.00 in 0 W/m2
22:05 23.6 °F 18.9 °F 29.77 in Calm     82% 0.00 in 0 W/m2
22:12 23.8 °F 19.1 °F 29.77 in Calm     82% 0.00 in 0 W/m2
22:18 23.7 °F 19.0 °F 29.77 in Calm     82% 0.00 in 0 W/m2
22:24 23.7 °F 19.0 °F 29.77 in Calm     82% 0.00 in 0 W/m2
22:30 23.7 °F 19.0 °F 29.77 in Calm     82% 0.00 in 0 W/m2
22:36 23.6 °F 18.9 °F 29.77 in Calm     82% 0.00 in 0 W/m2
22:42 23.3 °F 18.6 °F 29.76 in Calm     82% 0.00 in 0 W/m2
22:48 23.3 °F 18.6 °F 29.75 in Calm     82% 0.00 in 0 W/m2
22:54 23.6 °F 19.2 °F 29.75 in Calm     83% 0.00 in 0 W/m2
22:59 23.9 °F 19.5 °F 29.75 in Calm     83% 0.00 in 0 W/m2
23:06 24.0 °F 19.6 °F 29.75 in Calm     83% 0.00 in 0 W/m2
23:12 24.3 °F 19.9 °F 29.74 in Calm     83% 0.00 in 0 W/m2
23:18 24.5 °F 20.1 °F 29.74 in Calm     83% 0.00 in 0 W/m2
23:24 24.7 °F 20.3 °F 29.74 in Calm     83% 0.00 in 0 W/m2
23:30 25.0 °F 20.6 °F 29.74 in Calm     83% 0.00 in 0 W/m2
23:35 25.4 °F 21.0 °F 29.74 in Calm   1.0 mph 83% 0.00 in 0 W/m2
23:42 26.8 °F 22.0 °F 29.74 in Calm     82% 0.00 in 0 W/m2
23:48 26.5 °F 21.2 °F 29.74 in Calm   1.0 mph 80% 0.00 in 0 W/m2
23:54 26.0 °F 20.7 °F 29.74 in Calm     80% 0.00 in 0 W/m2
23:59 26.0 °F 20.7 °F 29.74 in Calm     80% 0.00 in 0 W/m2
Country Meadow, Clay, NY, USA
Compliments of Weather Underground - 2 mb